sensor_id;sensor_type;location;lat;lon;timestamp;temperature;humidity
8780;DHT22;62328;51.19929245;4.42130175;2023-03-14T00:00:55;12.00;99.90
8780;DHT22;62328;51.19929245;4.42130175;2023-03-14T00:03:22;12.00;99.90
8780;DHT22;62328;51.19929245;4.42130175;2023-03-14T00:05:50;12.00;99.90
8780;DHT22;62328;51.19929245;4.42130175;2023-03-14T00:08:17;12.00;99.90
8780;DHT22;62328;51.19929245;4.42130175;2023-03-14T00:10:47;12.00;99.90
8780;DHT22;62328;51.19929245;4.42130175;2023-03-14T00:13:13;12.00;99.90
8780;DHT22;62328;51.19929245;4.42130175;2023-03-14T00:15:40;12.00;99.90
8780;DHT22;62328;51.19929245;4.42130175;2023-03-14T00:18:07;12.00;99.90
8780;DHT22;62328;51.19929245;4.42130175;2023-03-14T00:20:34;11.90;99.90
8780;DHT22;62328;51.19929245;4.42130175;2023-03-14T00:23:02;12.00;99.90
8780;DHT22;62328;51.19929245;4.42130175;2023-03-14T00:25:29;12.00;99.90
8780;DHT22;62328;51.19929245;4.42130175;2023-03-14T00:27:56;12.00;99.90
8780;DHT22;62328;51.19929245;4.42130175;2023-03-14T00:30:23;12.00;99.90
8780;DHT22;62328;51.19929245;4.42130175;2023-03-14T00:32:50;12.00;99.90
8780;DHT22;62328;51.19929245;4.42130175;2023-03-14T00:35:17;12.00;99.90
8780;DHT22;62328;51.19929245;4.42130175;2023-03-14T00:37:45;11.90;99.90
8780;DHT22;62328;51.19929245;4.42130175;2023-03-14T00:40:13;12.00;99.90
8780;DHT22;62328;51.19929245;4.42130175;2023-03-14T00:42:40;11.90;99.90
8780;DHT22;62328;51.19929245;4.42130175;2023-03-14T00:45:08;11.90;99.90
8780;DHT22;62328;51.19929245;4.42130175;2023-03-14T00:47:35;11.90;99.90
8780;DHT22;62328;51.19929245;4.42130175;2023-03-14T00:50:02;11.90;99.90
8780;DHT22;62328;51.19929245;4.42130175;2023-03-14T00:52:29;11.80;99.90
8780;DHT22;62328;51.19929245;4.42130175;2023-03-14T00:54:56;11.90;99.90
8780;DHT22;62328;51.19929245;4.42130175;2023-03-14T00:57:25;11.80;99.90
8780;DHT22;62328;51.19929245;4.42130175;2023-03-14T00:59:52;11.80;99.90
8780;DHT22;62328;51.19929245;4.42130175;2023-03-14T01:02:19;11.90;99.90
8780;DHT22;62328;51.19929245;4.42130175;2023-03-14T01:04:47;11.90;99.90
8780;DHT22;62328;51.19929245;4.42130175;2023-03-14T01:07:14;11.90;99.90
8780;DHT22;62328;51.19929245;4.42130175;2023-03-14T01:09:41;11.90;99.90
8780;DHT22;62328;51.19929245;4.42130175;2023-03-14T01:12:08;11.90;99.90
8780;DHT22;62328;51.19929245;4.42130175;2023-03-14T01:14:36;11.90;99.90
8780;DHT22;62328;51.19929245;4.42130175;2023-03-14T01:17:03;11.80;99.90
8780;DHT22;62328;51.19929245;4.42130175;2023-03-14T01:19:30;11.80;99.90
8780;DHT22;62328;51.19929245;4.42130175;2023-03-14T01:21:57;11.80;99.90
8780;DHT22;62328;51.19929245;4.42130175;2023-03-14T01:24:24;11.80;99.90
8780;DHT22;62328;51.19929245;4.42130175;2023-03-14T01:26:51;11.70;99.90
8780;DHT22;62328;51.19929245;4.42130175;2023-03-14T01:29:17;11.70;99.90
8780;DHT22;62328;51.19929245;4.42130175;2023-03-14T01:31:47;11.70;99.90
8780;DHT22;62328;51.19929245;4.42130175;2023-03-14T01:34:14;11.70;99.90
8780;DHT22;62328;51.19929245;4.42130175;2023-03-14T01:36:41;11.60;99.90
8780;DHT22;62328;51.19929245;4.42130175;2023-03-14T01:39:07;11.60;99.90
8780;DHT22;62328;51.19929245;4.42130175;2023-03-14T01:41:35;11.60;99.90
8780;DHT22;62328;51.19929245;4.42130175;2023-03-14T02:14:33;11.30;99.90
8780;DHT22;62328;51.19929245;4.42130175;2023-03-14T02:17:19;11.70;99.90
8780;DHT22;62328;51.19929245;4.42130175;2023-03-14T02:20:06;11.30;99.90
8780;DHT22;62328;51.19929245;4.42130175;2023-03-14T02:22:39;11.30;99.90
8780;DHT22;62328;51.19929245;4.42130175;2023-03-14T02:25:12;11.30;99.90
8780;DHT22;62328;51.19929245;4.42130175;2023-03-14T02:27:43;11.40;99.90
8780;DHT22;62328;51.19929245;4.42130175;2023-03-14T02:30:14;11.40;99.90
8780;DHT22;62328;51.19929245;4.42130175;2023-03-14T02:32:45;11.50;99.90
8780;DHT22;62328;51.19929245;4.42130175;2023-03-14T02:35:15;11.40;99.90
8780;DHT22;62328;51.19929245;4.42130175;2023-03-14T02:37:49;11.40;99.90
8780;DHT22;62328;51.19929245;4.42130175;2023-03-14T02:40:18;11.40;99.90
8780;DHT22;62328;51.19929245;4.42130175;2023-03-14T02:42:49;11.40;99.90
8780;DHT22;62328;51.19929245;4.42130175;2023-03-14T02:45:47;11.40;99.90
8780;DHT22;62328;51.19929245;4.42130175;2023-03-14T02:48:21;11.40;99.90
8780;DHT22;62328;51.19929245;4.42130175;2023-03-14T02:50:50;13.20;99.90
8780;DHT22;62328;51.19929245;4.42130175;2023-03-14T02:53:28;11.40;99.90
8780;DHT22;62328;51.19929245;4.42130175;2023-03-14T02:55:56;11.40;99.90
8780;DHT22;62328;51.19929245;4.42130175;2023-03-14T02:58:26;11.40;99.90
8780;DHT22;62328;51.19929245;4.42130175;2023-03-14T03:00:56;11.40;99.90
8780;DHT22;62328;51.19929245;4.42130175;2023-03-14T03:03:25;11.40;99.90
8780;DHT22;62328;51.19929245;4.42130175;2023-03-14T03:05:53;11.40;99.90
8780;DHT22;62328;51.19929245;4.42130175;2023-03-14T03:08:23;12.20;99.90
8780;DHT22;62328;51.19929245;4.42130175;2023-03-14T03:10:53;11.30;99.90
8780;DHT22;62328;51.19929245;4.42130175;2023-03-14T03:13:20;11.30;99.90
8780;DHT22;62328;51.19929245;4.42130175;2023-03-14T03:15:48;11.20;99.90
8780;DHT22;62328;51.19929245;4.42130175;2023-03-14T03:18:17;11.20;99.90
8780;DHT22;62328;51.19929245;4.42130175;2023-03-14T03:20:45;11.20;99.90
8780;DHT22;62328;51.19929245;4.42130175;2023-03-14T03:23:13;11.20;99.90
8780;DHT22;62328;51.19929245;4.42130175;2023-03-14T03:25:39;11.20;99.90
8780;DHT22;62328;51.19929245;4.42130175;2023-03-14T03:28:07;11.20;99.90
8780;DHT22;62328;51.19929245;4.42130175;2023-03-14T03:30:38;11.10;99.90
8780;DHT22;62328;51.19929245;4.42130175;2023-03-14T03:33:06;11.40;99.90
8780;DHT22;62328;51.19929245;4.42130175;2023-03-14T03:35:33;11.10;99.90
8780;DHT22;62328;51.19929245;4.42130175;2023-03-14T03:38:00;11.10;99.90
8780;DHT22;62328;51.19929245;4.42130175;2023-03-14T03:40:27;10.60;99.90
8780;DHT22;62328;51.19929245;4.42130175;2023-03-14T03:42:54;11.10;99.90
8780;DHT22;62328;51.19929245;4.42130175;2023-03-14T03:45:21;11.10;99.90
8780;DHT22;62328;51.19929245;4.42130175;2023-03-14T03:47:49;11.10;99.90
8780;DHT22;62328;51.19929245;4.42130175;2023-03-14T03:50:17;11.00;99.90
8780;DHT22;62328;51.19929245;4.42130175;2023-03-14T03:52:44;11.40;99.90
8780;DHT22;62328;51.19929245;4.42130175;2023-03-14T03:55:12;11.50;99.90
8780;DHT22;62328;51.19929245;4.42130175;2023-03-14T03:57:39;10.90;99.90
8780;DHT22;62328;51.19929245;4.42130175;2023-03-14T04:00:07;10.90;99.90
8780;DHT22;62328;51.19929245;4.42130175;2023-03-14T04:02:38;10.90;99.90
8780;DHT22;62328;51.19929245;4.42130175;2023-03-14T04:05:05;10.90;99.90
8780;DHT22;62328;51.19929245;4.42130175;2023-03-14T04:07:33;10.80;99.90
8780;DHT22;62328;51.19929245;4.42130175;2023-03-14T04:10:00;10.80;99.90
8780;DHT22;62328;51.19929245;4.42130175;2023-03-14T04:12:27;10.90;99.90
8780;DHT22;62328;51.19929245;4.42130175;2023-03-14T04:14:54;10.90;99.90
8780;DHT22;62328;51.19929245;4.42130175;2023-03-14T04:17:22;12.60;99.90
8780;DHT22;62328;51.19929245;4.42130175;2023-03-14T04:19:49;10.90;99.90
8780;DHT22;62328;51.19929245;4.42130175;2023-03-14T04:22:17;11.60;99.90
8780;DHT22;62328;51.19929245;4.42130175;2023-03-14T04:24:45;10.90;99.90
8780;DHT22;62328;51.19929245;4.42130175;2023-03-14T04:27:12;10.60;99.90
8780;DHT22;62328;51.19929245;4.42130175;2023-03-14T04:29:40;11.20;99.90
8780;DHT22;62328;51.19929245;4.42130175;2023-03-14T04:32:09;11.00;99.90
8780;DHT22;62328;51.19929245;4.42130175;2023-03-14T04:34:38;11.00;99.90
8780;DHT22;62328;51.19929245;4.42130175;2023-03-14T04:37:05;11.20;99.90
8780;DHT22;62328;51.19929245;4.42130175;2023-03-14T04:39:32;11.00;99.90
8780;DHT22;62328;51.19929245;4.42130175;2023-03-14T04:42:00;10.20;99.90
8780;DHT22;62328;51.19929245;4.42130175;2023-03-14T04:44:27;10.90;99.90
8780;DHT22;62328;51.19929245;4.42130175;2023-03-14T04:46:54;10.90;99.90
8780;DHT22;62328;51.19929245;4.42130175;2023-03-14T04:49:21;11.10;99.90
8780;DHT22;62328;51.19929245;4.42130175;2023-03-14T04:51:48;11.00;99.90
8780;DHT22;62328;51.19929245;4.42130175;2023-03-14T04:54:16;12.60;99.90
8780;DHT22;62328;51.19929245;4.42130175;2023-03-14T04:56:44;11.00;99.90
8780;DHT22;62328;51.19929245;4.42130175;2023-03-14T04:59:12;11.10;99.90
8780;DHT22;62328;51.19929245;4.42130175;2023-03-14T05:01:39;11.10;99.90
8780;DHT22;62328;51.19929245;4.42130175;2023-03-14T05:04:06;11.10;99.90
8780;DHT22;62328;51.19929245;4.42130175;2023-03-14T05:06:33;11.30;99.90
8780;DHT22;62328;51.19929245;4.42130175;2023-03-14T05:09:01;11.20;99.90
8780;DHT22;62328;51.19929245;4.42130175;2023-03-14T05:11:28;11.00;99.90
8780;DHT22;62328;51.19929245;4.42130175;2023-03-14T05:13:55;10.90;99.90
8780;DHT22;62328;51.19929245;4.42130175;2023-03-14T05:16:24;11.10;99.90
8780;DHT22;62328;51.19929245;4.42130175;2023-03-14T05:18:52;10.90;99.90
8780;DHT22;62328;51.19929245;4.42130175;2023-03-14T05:21:19;10.90;99.90
8780;DHT22;62328;51.19929245;4.42130175;2023-03-14T05:23:46;10.90;99.90
8780;DHT22;62328;51.19929245;4.42130175;2023-03-14T05:26:13;10.80;99.90
8780;DHT22;62328;51.19929245;4.42130175;2023-03-14T05:28:42;10.90;99.90
8780;DHT22;62328;51.19929245;4.42130175;2023-03-14T05:31:12;11.00;99.90
8780;DHT22;62328;51.19929245;4.42130175;2023-03-14T05:33:41;10.90;99.90
8780;DHT22;62328;51.19929245;4.42130175;2023-03-14T05:36:08;11.20;99.90
8780;DHT22;62328;51.19929245;4.42130175;2023-03-14T05:38:35;11.00;99.90
8780;DHT22;62328;51.19929245;4.42130175;2023-03-14T05:41:02;11.00;99.90
8780;DHT22;62328;51.19929245;4.42130175;2023-03-14T05:43:29;11.00;99.90
8780;DHT22;62328;51.19929245;4.42130175;2023-03-14T05:45:56;11.10;99.90
8780;DHT22;62328;51.19929245;4.42130175;2023-03-14T05:48:29;12.30;99.90
8780;DHT22;62328;51.19929245;4.42130175;2023-03-14T05:50:57;11.10;99.90
8780;DHT22;62328;51.19929245;4.42130175;2023-03-14T05:53:25;11.10;99.90
8780;DHT22;62328;51.19929245;4.42130175;2023-03-14T05:55:52;11.10;99.90
8780;DHT22;62328;51.19929245;4.42130175;2023-03-14T05:58:19;11.10;99.90
8780;DHT22;62328;51.19929245;4.42130175;2023-03-14T06:00:48;11.90;99.90
8780;DHT22;62328;51.19929245;4.42130175;2023-03-14T06:03:15;11.10;99.90
8780;DHT22;62328;51.19929245;4.42130175;2023-03-14T06:05:45;11.30;99.90
8780;DHT22;62328;51.19929245;4.42130175;2023-03-14T06:08:18;11.00;99.90
8780;DHT22;62328;51.19929245;4.42130175;2023-03-14T06:10:50;12.40;99.90
8780;DHT22;62328;51.19929245;4.42130175;2023-03-14T06:13:17;11.00;99.90
8780;DHT22;62328;51.19929245;4.42130175;2023-03-14T06:15:44;11.10;99.90
8780;DHT22;62328;51.19929245;4.42130175;2023-03-14T06:18:12;11.20;99.90
8780;DHT22;62328;51.19929245;4.42130175;2023-03-14T06:20:40;11.00;99.90
8780;DHT22;62328;51.19929245;4.42130175;2023-03-14T06:23:07;10.90;99.90
8780;DHT22;62328;51.19929245;4.42130175;2023-03-14T06:25:35;10.90;99.90
8780;DHT22;62328;51.19929245;4.42130175;2023-03-14T06:28:05;11.40;99.90
8780;DHT22;62328;51.19929245;4.42130175;2023-03-14T06:30:36;11.00;99.90
8780;DHT22;62328;51.19929245;4.42130175;2023-03-14T06:33:03;12.90;99.90
8780;DHT22;62328;51.19929245;4.42130175;2023-03-14T06:35:30;10.70;99.90
8780;DHT22;62328;51.19929245;4.42130175;2023-03-14T06:37:57;10.50;99.90
8780;DHT22;62328;51.19929245;4.42130175;2023-03-14T06:40:23;10.20;99.90
8780;DHT22;62328;51.19929245;4.42130175;2023-03-14T06:42:52;9.70;99.90
8780;DHT22;62328;51.19929245;4.42130175;2023-03-14T06:45:19;11.00;99.90
8780;DHT22;62328;51.19929245;4.42130175;2023-03-14T06:47:45;9.80;99.90
8780;DHT22;62328;51.19929245;4.42130175;2023-03-14T06:50:12;10.00;99.90
8780;DHT22;62328;51.19929245;4.42130175;2023-03-14T06:52:39;12.00;99.90
8780;DHT22;62328;51.19929245;4.42130175;2023-03-14T06:55:11;10.40;99.90
8780;DHT22;62328;51.19929245;4.42130175;2023-03-14T06:57:38;10.10;99.90
8780;DHT22;62328;51.19929245;4.42130175;2023-03-14T07:00:08;10.10;99.90
8780;DHT22;62328;51.19929245;4.42130175;2023-03-14T07:02:35;9.60;99.90
8780;DHT22;62328;51.19929245;4.42130175;2023-03-14T07:05:02;9.50;99.90
8780;DHT22;62328;51.19929245;4.42130175;2023-03-14T07:07:29;9.40;99.90
8780;DHT22;62328;51.19929245;4.42130175;2023-03-14T07:09:55;9.40;99.90
8780;DHT22;62328;51.19929245;4.42130175;2023-03-14T07:12:22;9.40;99.90
8780;DHT22;62328;51.19929245;4.42130175;2023-03-14T07:14:56;10.20;99.90
8780;DHT22;62328;51.19929245;4.42130175;2023-03-14T07:17:25;9.70;99.90
8780;DHT22;62328;51.19929245;4.42130175;2023-03-14T07:19:54;8.40;99.90
8780;DHT22;62328;51.19929245;4.42130175;2023-03-14T07:22:21;9.30;99.90
8780;DHT22;62328;51.19929245;4.42130175;2023-03-14T07:24:48;9.20;99.90
8780;DHT22;62328;51.19929245;4.42130175;2023-03-14T07:27:15;9.20;99.90
8780;DHT22;62328;51.19929245;4.42130175;2023-03-14T07:29:42;9.20;99.90
8780;DHT22;62328;51.19929245;4.42130175;2023-03-14T07:32:09;9.10;99.90
8780;DHT22;62328;51.19929245;4.42130175;2023-03-14T07:34:41;9.10;99.90
8780;DHT22;62328;51.19929245;4.42130175;2023-03-14T07:37:08;11.00;99.90
8780;DHT22;62328;51.19929245;4.42130175;2023-03-14T07:39:35;9.10;99.90
8780;DHT22;62328;51.19929245;4.42130175;2023-03-14T07:42:02;10.10;99.90
8780;DHT22;62328;51.19929245;4.42130175;2023-03-14T07:44:29;9.10;99.90
8780;DHT22;62328;51.19929245;4.42130175;2023-03-14T07:46:56;9.10;99.90
8780;DHT22;62328;51.19929245;4.42130175;2023-03-14T07:49:24;9.40;99.90
8780;DHT22;62328;51.19929245;4.42130175;2023-03-14T07:51:52;9.20;99.90
8780;DHT22;62328;51.19929245;4.42130175;2023-03-14T07:54:19;10.00;99.90
8780;DHT22;62328;51.19929245;4.42130175;2023-03-14T07:56:46;9.30;99.90
8780;DHT22;62328;51.19929245;4.42130175;2023-03-14T07:59:12;9.10;99.90
8780;DHT22;62328;51.19929245;4.42130175;2023-03-14T08:01:39;9.00;99.90
8780;DHT22;62328;51.19929245;4.42130175;2023-03-14T08:04:06;9.10;99.90
8780;DHT22;62328;51.19929245;4.42130175;2023-03-14T08:06:34;9.50;99.90
8780;DHT22;62328;51.19929245;4.42130175;2023-03-14T08:09:03;9.20;99.90
8780;DHT22;62328;51.19929245;4.42130175;2023-03-14T08:11:30;9.40;99.90
8780;DHT22;62328;51.19929245;4.42130175;2023-03-14T08:13:57;9.40;99.90
8780;DHT22;62328;51.19929245;4.42130175;2023-03-14T08:16:24;9.80;99.90
8780;DHT22;62328;51.19929245;4.42130175;2023-03-14T08:18:51;9.40;99.90
8780;DHT22;62328;51.19929245;4.42130175;2023-03-14T08:21:18;10.00;99.90
8780;DHT22;62328;51.19929245;4.42130175;2023-03-14T08:23:45;11.00;99.90
8780;DHT22;62328;51.19929245;4.42130175;2023-03-14T08:26:13;9.30;99.90
8780;DHT22;62328;51.19929245;4.42130175;2023-03-14T08:28:40;9.30;99.90
8780;DHT22;62328;51.19929245;4.42130175;2023-03-14T08:31:07;9.40;99.90
8780;DHT22;62328;51.19929245;4.42130175;2023-03-14T08:33:33;9.50;99.90
8780;DHT22;62328;51.19929245;4.42130175;2023-03-14T08:36:01;9.50;99.90
8780;DHT22;62328;51.19929245;4.42130175;2023-03-14T08:38:28;10.20;99.90
8780;DHT22;62328;51.19929245;4.42130175;2023-03-14T08:40:56;9.50;99.90
8780;DHT22;62328;51.19929245;4.42130175;2023-03-14T08:43:25;9.50;99.90
8780;DHT22;62328;51.19929245;4.42130175;2023-03-14T08:45:52;9.40;99.90
8780;DHT22;62328;51.19929245;4.42130175;2023-03-14T08:48:19;11.80;99.90
8780;DHT22;62328;51.19929245;4.42130175;2023-03-14T08:50:46;11.60;99.90
8780;DHT22;62328;51.19929245;4.42130175;2023-03-14T08:53:13;9.50;99.90
8780;DHT22;62328;51.19929245;4.42130175;2023-03-14T08:55:40;9.80;99.90
8780;DHT22;62328;51.19929245;4.42130175;2023-03-14T08:58:07;9.80;99.90
8780;DHT22;62328;51.19929245;4.42130175;2023-03-14T09:00:36;9.20;99.90
8780;DHT22;62328;51.19929245;4.42130175;2023-03-14T09:03:03;9.10;99.90
8780;DHT22;62328;51.19929245;4.42130175;2023-03-14T09:05:32;10.40;99.90
8780;DHT22;62328;51.19929245;4.42130175;2023-03-14T09:08:00;10.10;99.90
8780;DHT22;62328;51.19929245;4.42130175;2023-03-14T09:10:27;9.20;99.90
8780;DHT22;62328;51.19929245;4.42130175;2023-03-14T09:12:53;9.40;99.90
8780;DHT22;62328;51.19929245;4.42130175;2023-03-14T09:15:20;9.60;99.90
8780;DHT22;62328;51.19929245;4.42130175;2023-03-14T09:17:48;9.50;99.90
8780;DHT22;62328;51.19929245;4.42130175;2023-03-14T09:20:16;9.90;99.90
8780;DHT22;62328;51.19929245;4.42130175;2023-03-14T09:22:43;9.50;99.90
8780;DHT22;62328;51.19929245;4.42130175;2023-03-14T09:25:10;7.50;99.90
8780;DHT22;62328;51.19929245;4.42130175;2023-03-14T09:27:37;9.40;99.90
8780;DHT22;62328;51.19929245;4.42130175;2023-03-14T09:30:04;10.60;99.90
8780;DHT22;62328;51.19929245;4.42130175;2023-03-14T09:32:32;9.60;99.90
8780;DHT22;62328;51.19929245;4.42130175;2023-03-14T09:35:00;9.60;99.90
8780;DHT22;62328;51.19929245;4.42130175;2023-03-14T09:37:27;9.60;99.90
8780;DHT22;62328;51.19929245;4.42130175;2023-03-14T09:39:54;9.60;99.90
8780;DHT22;62328;51.19929245;4.42130175;2023-03-14T09:42:23;9.50;99.90
8780;DHT22;62328;51.19929245;4.42130175;2023-03-14T09:44:54;9.40;99.90
8780;DHT22;62328;51.19929245;4.42130175;2023-03-14T09:47:23;9.40;99.90
8780;DHT22;62328;51.19929245;4.42130175;2023-03-14T09:49:50;9.40;99.90
8780;DHT22;62328;51.19929245;4.42130175;2023-03-14T09:52:23;9.30;99.90
8780;DHT22;62328;51.19929245;4.42130175;2023-03-14T09:54:52;9.30;99.90
8780;DHT22;62328;51.19929245;4.42130175;2023-03-14T09:57:23;9.10;99.90
8780;DHT22;62328;51.19929245;4.42130175;2023-03-14T09:59:52;9.10;99.90
8780;DHT22;62328;51.19929245;4.42130175;2023-03-14T10:02:21;9.20;99.90
8780;DHT22;62328;51.19929245;4.42130175;2023-03-14T10:04:50;9.40;99.90
8780;DHT22;62328;51.19929245;4.42130175;2023-03-14T10:07:21;9.00;99.90
8780;DHT22;62328;51.19929245;4.42130175;2023-03-14T10:09:50;9.40;99.90
8780;DHT22;62328;51.19929245;4.42130175;2023-03-14T10:12:18;9.50;99.90
8780;DHT22;62328;51.19929245;4.42130175;2023-03-14T10:14:48;9.50;99.90
8780;DHT22;62328;51.19929245;4.42130175;2023-03-14T10:17:17;9.60;99.90
8780;DHT22;62328;51.19929245;4.42130175;2023-03-14T10:19:55;9.70;99.90
8780;DHT22;62328;51.19929245;4.42130175;2023-03-14T10:22:26;9.60;99.90
8780;DHT22;62328;51.19929245;4.42130175;2023-03-14T10:24:57;10.90;99.90
8780;DHT22;62328;51.19929245;4.42130175;2023-03-14T10:27:29;9.90;99.90
8780;DHT22;62328;51.19929245;4.42130175;2023-03-14T10:29:57;9.90;99.90
8780;DHT22;62328;51.19929245;4.42130175;2023-03-14T10:32:29;10.30;99.90
8780;DHT22;62328;51.19929245;4.42130175;2023-03-14T10:35:07;9.80;99.90
8780;DHT22;62328;51.19929245;4.42130175;2023-03-14T10:37:48;9.90;99.90
8780;DHT22;62328;51.19929245;4.42130175;2023-03-14T10:40:22;10.00;99.90
8780;DHT22;62328;51.19929245;4.42130175;2023-03-14T10:42:51;10.50;99.90
8780;DHT22;62328;51.19929245;4.42130175;2023-03-14T10:45:39;10.50;99.90
8780;DHT22;62328;51.19929245;4.42130175;2023-03-14T10:48:20;10.70;99.90
8780;DHT22;62328;51.19929245;4.42130175;2023-03-14T10:50:55;10.70;99.90
8780;DHT22;62328;51.19929245;4.42130175;2023-03-14T10:53:24;10.80;99.90
8780;DHT22;62328;51.19929245;4.42130175;2023-03-14T10:55:51;11.00;99.90
8780;DHT22;62328;51.19929245;4.42130175;2023-03-14T10:58:20;11.00;99.90
8780;DHT22;62328;51.19929245;4.42130175;2023-03-14T11:00:52;10.90;99.90
8780;DHT22;62328;51.19929245;4.42130175;2023-03-14T11:03:20;10.80;99.90
8780;DHT22;62328;51.19929245;4.42130175;2023-03-14T11:05:52;10.90;99.90
8780;DHT22;62328;51.19929245;4.42130175;2023-03-14T11:08:27;11.20;99.90
8780;DHT22;62328;51.19929245;4.42130175;2023-03-14T11:11:02;10.80;99.90
8780;DHT22;62328;51.19929245;4.42130175;2023-03-14T11:13:39;11.40;99.90
8780;DHT22;62328;51.19929245;4.42130175;2023-03-14T11:16:16;10.80;99.90
8780;DHT22;62328;51.19929245;4.42130175;2023-03-14T11:18:56;10.80;99.90
8780;DHT22;62328;51.19929245;4.42130175;2023-03-14T11:21:29;11.30;99.90
8780;DHT22;62328;51.19929245;4.42130175;2023-03-14T11:24:13;10.90;99.90
8780;DHT22;62328;51.19929245;4.42130175;2023-03-14T11:26:47;10.80;99.90
8780;DHT22;62328;51.19929245;4.42130175;2023-03-14T11:29:21;11.90;99.90
8780;DHT22;62328;51.19929245;4.42130175;2023-03-14T11:31:49;10.10;99.90
8780;DHT22;62328;51.19929245;4.42130175;2023-03-14T11:34:17;10.00;99.90
8780;DHT22;62328;51.19929245;4.42130175;2023-03-14T11:36:52;9.60;99.90
8780;DHT22;62328;51.19929245;4.42130175;2023-03-14T11:39:20;9.60;99.90
8780;DHT22;62328;51.19929245;4.42130175;2023-03-14T11:41:50;9.80;99.90
8780;DHT22;62328;51.19929245;4.42130175;2023-03-14T11:44:18;10.10;99.90
8780;DHT22;62328;51.19929245;4.42130175;2023-03-14T11:46:50;9.80;99.90
8780;DHT22;62328;51.19929245;4.42130175;2023-03-14T11:49:27;9.90;99.90
8780;DHT22;62328;51.19929245;4.42130175;2023-03-14T11:51:57;9.80;99.90
8780;DHT22;62328;51.19929245;4.42130175;2023-03-14T11:54:33;10.50;99.90
8780;DHT22;62328;51.19929245;4.42130175;2023-03-14T11:57:03;10.10;99.90
8780;DHT22;62328;51.19929245;4.42130175;2023-03-14T11:59:38;10.10;99.90
8780;DHT22;62328;51.19929245;4.42130175;2023-03-14T12:02:13;10.30;99.90
8780;DHT22;62328;51.19929245;4.42130175;2023-03-14T12:04:51;10.90;99.90
8780;DHT22;62328;51.19929245;4.42130175;2023-03-14T12:07:23;10.50;99.90
8780;DHT22;62328;51.19929245;4.42130175;2023-03-14T12:09:53;10.70;99.90
8780;DHT22;62328;51.19929245;4.42130175;2023-03-14T12:12:23;10.60;99.90
8780;DHT22;62328;51.19929245;4.42130175;2023-03-14T12:14:55;10.50;99.90
8780;DHT22;62328;51.19929245;4.42130175;2023-03-14T12:17:25;11.00;99.90
8780;DHT22;62328;51.19929245;4.42130175;2023-03-14T12:20:05;10.30;99.90
8780;DHT22;62328;51.19929245;4.42130175;2023-03-14T12:22:35;10.80;99.90
8780;DHT22;62328;51.19929245;4.42130175;2023-03-14T12:25:06;10.50;99.90
8780;DHT22;62328;51.19929245;4.42130175;2023-03-14T12:27:49;10.30;99.90
8780;DHT22;62328;51.19929245;4.42130175;2023-03-14T12:30:30;10.20;99.90
8780;DHT22;62328;51.19929245;4.42130175;2023-03-14T12:33:28;10.10;99.90
8780;DHT22;62328;51.19929245;4.42130175;2023-03-14T12:36:04;10.30;99.90
8780;DHT22;62328;51.19929245;4.42130175;2023-03-14T12:38:49;10.20;99.90
8780;DHT22;62328;51.19929245;4.42130175;2023-03-14T12:41:22;9.00;99.90
8780;DHT22;62328;51.19929245;4.42130175;2023-03-14T12:43:50;10.20;99.90
8780;DHT22;62328;51.19929245;4.42130175;2023-03-14T12:46:22;10.60;99.90
8780;DHT22;62328;51.19929245;4.42130175;2023-03-14T12:48:53;10.70;99.90
8780;DHT22;62328;51.19929245;4.42130175;2023-03-14T12:51:28;11.00;99.90
8780;DHT22;62328;51.19929245;4.42130175;2023-03-14T12:54:06;11.30;99.90
8780;DHT22;62328;51.19929245;4.42130175;2023-03-14T12:56:45;11.00;99.90
8780;DHT22;62328;51.19929245;4.42130175;2023-03-14T12:59:30;11.00;99.90
8780;DHT22;62328;51.19929245;4.42130175;2023-03-14T13:02:00;10.80;99.90
8780;DHT22;62328;51.19929245;4.42130175;2023-03-14T13:04:31;10.70;99.90
8780;DHT22;62328;51.19929245;4.42130175;2023-03-14T13:07:00;12.40;99.90
8780;DHT22;62328;51.19929245;4.42130175;2023-03-14T13:09:50;10.60;99.90
8780;DHT22;62328;51.19929245;4.42130175;2023-03-14T13:12:25;10.70;99.90
8780;DHT22;62328;51.19929245;4.42130175;2023-03-14T13:14:58;10.60;99.90
8780;DHT22;62328;51.19929245;4.42130175;2023-03-14T13:17:28;10.40;99.90
8780;DHT22;62328;51.19929245;4.42130175;2023-03-14T13:19:57;10.30;99.90
8780;DHT22;62328;51.19929245;4.42130175;2023-03-14T13:22:27;10.30;99.90
8780;DHT22;62328;51.19929245;4.42130175;2023-03-14T13:25:00;10.40;99.90
8780;DHT22;62328;51.19929245;4.42130175;2023-03-14T13:27:30;10.40;99.90
8780;DHT22;62328;51.19929245;4.42130175;2023-03-14T13:29:58;10.40;99.90
8780;DHT22;62328;51.19929245;4.42130175;2023-03-14T13:32:27;10.40;99.90
8780;DHT22;62328;51.19929245;4.42130175;2023-03-14T13:34:56;11.90;99.90
8780;DHT22;62328;51.19929245;4.42130175;2023-03-14T13:37:24;10.50;99.90
8780;DHT22;62328;51.19929245;4.42130175;2023-03-14T13:39:54;9.20;99.90
8780;DHT22;62328;51.19929245;4.42130175;2023-03-14T13:42:25;10.80;99.90
8780;DHT22;62328;51.19929245;4.42130175;2023-03-14T13:44:55;10.90;99.90
8780;DHT22;62328;51.19929245;4.42130175;2023-03-14T13:47:24;11.20;99.90
8780;DHT22;62328;51.19929245;4.42130175;2023-03-14T13:49:52;11.00;99.90
8780;DHT22;62328;51.19929245;4.42130175;2023-03-14T13:52:29;12.40;99.90
8780;DHT22;62328;51.19929245;4.42130175;2023-03-14T13:54:57;11.00;99.90
8780;DHT22;62328;51.19929245;4.42130175;2023-03-14T13:57:25;11.00;99.90
8780;DHT22;62328;51.19929245;4.42130175;2023-03-14T14:00:01;11.20;99.90
8780;DHT22;62328;51.19929245;4.42130175;2023-03-14T14:02:32;11.00;99.90
8780;DHT22;62328;51.19929245;4.42130175;2023-03-14T14:05:00;11.00;99.90
8780;DHT22;62328;51.19929245;4.42130175;2023-03-14T14:07:28;11.00;99.90
8780;DHT22;62328;51.19929245;4.42130175;2023-03-14T14:09:55;10.80;99.90
8780;DHT22;62328;51.19929245;4.42130175;2023-03-14T14:12:25;10.50;99.90
8780;DHT22;62328;51.19929245;4.42130175;2023-03-14T14:14:57;10.50;99.90
8780;DHT22;62328;51.19929245;4.42130175;2023-03-14T14:17:30;10.60;99.90
8780;DHT22;62328;51.19929245;4.42130175;2023-03-14T14:19:58;10.00;99.90